sensor_id;sensor_type;location;lat;lon;timestamp;P1;durP1;ratioP1;P2;durP2;ratioP2
2892;SDS011;1456;51.840;12.184;2024-02-16T00:00:16;8.90;;;6.10;;
2892;SDS011;1456;51.840;12.184;2024-02-16T00:02:42;5.00;;;4.60;;
2892;SDS011;1456;51.840;12.184;2024-02-16T00:05:08;8.10;;;6.53;;
2892;SDS011;1456;51.840;12.184;2024-02-16T00:07:36;10.87;;;6.10;;
2892;SDS011;1456;51.840;12.184;2024-02-16T00:10:03;6.33;;;5.73;;
2892;SDS011;1456;51.840;12.184;2024-02-16T00:12:33;9.57;;;4.80;;
2892;SDS011;1456;51.840;12.184;2024-02-16T00:14:59;7.00;;;5.40;;
2892;SDS011;1456;51.840;12.184;2024-02-16T00:17:25;7.00;;;5.10;;
2892;SDS011;1456;51.840;12.184;2024-02-16T00:19:56;5.37;;;5.00;;
2892;SDS011;1456;51.840;12.184;2024-02-16T00:22:22;7.37;;;5.30;;
2892;SDS011;1456;51.840;12.184;2024-02-16T00:24:48;8.73;;;6.63;;
2892;SDS011;1456;51.840;12.184;2024-02-16T00:27:14;9.00;;;7.33;;
2892;SDS011;1456;51.840;12.184;2024-02-16T00:29:41;9.60;;;7.00;;
2892;SDS011;1456;51.840;12.184;2024-02-16T00:32:06;7.93;;;6.10;;
2892;SDS011;1456;51.840;12.184;2024-02-16T00:34:33;6.90;;;5.83;;
2892;SDS011;1456;51.840;12.184;2024-02-16T00:37:00;7.30;;;6.60;;
2892;SDS011;1456;51.840;12.184;2024-02-16T00:39:26;14.20;;;7.20;;
2892;SDS011;1456;51.840;12.184;2024-02-16T00:41:52;7.80;;;7.10;;
2892;SDS011;1456;51.840;12.184;2024-02-16T00:44:17;6.50;;;5.70;;
2892;SDS011;1456;51.840;12.184;2024-02-16T00:46:44;8.07;;;7.20;;
2892;SDS011;1456;51.840;12.184;2024-02-16T00:49:10;8.10;;;7.40;;
2892;SDS011;1456;51.840;12.184;2024-02-16T00:51:36;7.93;;;7.20;;
2892;SDS011;1456;51.840;12.184;2024-02-16T00:54:02;10.63;;;6.77;;
2892;SDS011;1456;51.840;12.184;2024-02-16T00:56:28;6.80;;;6.23;;
2892;SDS011;1456;51.840;12.184;2024-02-16T00:58:55;9.17;;;8.27;;
2892;SDS011;1456;51.840;12.184;2024-02-16T01:01:21;8.17;;;7.17;;
2892;SDS011;1456;51.840;12.184;2024-02-16T01:03:47;6.50;;;5.63;;
2892;SDS011;1456;51.840;12.184;2024-02-16T01:06:14;7.57;;;5.83;;
2892;SDS011;1456;51.840;12.184;2024-02-16T01:08:40;7.97;;;7.27;;
2892;SDS011;1456;51.840;12.184;2024-02-16T01:11:06;8.67;;;7.77;;
2892;SDS011;1456;51.840;12.184;2024-02-16T01:13:32;8.37;;;6.33;;
2892;SDS011;1456;51.840;12.184;2024-02-16T01:15:58;7.97;;;7.37;;
2892;SDS011;1456;51.840;12.184;2024-02-16T01:18:25;7.87;;;7.00;;
2892;SDS011;1456;51.840;12.184;2024-02-16T01:20:51;8.90;;;7.67;;
2892;SDS011;1456;51.840;12.184;2024-02-16T01:23:17;7.97;;;7.17;;
2892;SDS011;1456;51.840;12.184;2024-02-16T01:25:42;9.67;;;6.33;;
2892;SDS011;1456;51.840;12.184;2024-02-16T01:28:08;8.30;;;7.63;;
2892;SDS011;1456;51.840;12.184;2024-02-16T01:30:34;8.57;;;7.67;;
2892;SDS011;1456;51.840;12.184;2024-02-16T01:32:59;6.37;;;5.77;;
2892;SDS011;1456;51.840;12.184;2024-02-16T01:35:25;7.30;;;5.93;;
2892;SDS011;1456;51.840;12.184;2024-02-16T01:37:50;8.23;;;7.43;;
2892;SDS011;1456;51.840;12.184;2024-02-16T01:40:16;9.27;;;7.10;;
2892;SDS011;1456;51.840;12.184;2024-02-16T01:42:43;9.50;;;8.50;;
2892;SDS011;1456;51.840;12.184;2024-02-16T01:45:09;8.50;;;6.97;;
2892;SDS011;1456;51.840;12.184;2024-02-16T01:47:37;8.23;;;7.47;;
2892;SDS011;1456;51.840;12.184;2024-02-16T01:50:03;9.50;;;7.40;;
2892;SDS011;1456;51.840;12.184;2024-02-16T01:52:30;12.73;;;8.00;;
2892;SDS011;1456;51.840;12.184;2024-02-16T01:54:59;9.47;;;6.70;;
2892;SDS011;1456;51.840;12.184;2024-02-16T01:57:24;9.00;;;7.43;;
2892;SDS011;1456;51.840;12.184;2024-02-16T01:59:50;9.33;;;7.70;;
2892;SDS011;1456;51.840;12.184;2024-02-16T02:02:16;8.53;;;7.73;;
2892;SDS011;1456;51.840;12.184;2024-02-16T02:04:41;6.23;;;5.63;;
2892;SDS011;1456;51.840;12.184;2024-02-16T02:07:15;6.30;;;5.40;;
2892;SDS011;1456;51.840;12.184;2024-02-16T02:09:41;7.87;;;7.17;;
2892;SDS011;1456;51.840;12.184;2024-02-16T02:12:10;7.37;;;6.63;;
2892;SDS011;1456;51.840;12.184;2024-02-16T02:14:36;8.00;;;6.10;;
2892;SDS011;1456;51.840;12.184;2024-02-16T02:17:02;7.80;;;7.10;;
2892;SDS011;1456;51.840;12.184;2024-02-16T02:19:28;10.33;;;8.03;;
2892;SDS011;1456;51.840;12.184;2024-02-16T02:21:55;10.70;;;7.27;;
2892;SDS011;1456;51.840;12.184;2024-02-16T02:24:21;10.20;;;6.10;;
2892;SDS011;1456;51.840;12.184;2024-02-16T02:26:46;7.77;;;7.00;;
2892;SDS011;1456;51.840;12.184;2024-02-16T02:29:12;8.40;;;7.20;;
2892;SDS011;1456;51.840;12.184;2024-02-16T02:31:37;7.20;;;6.50;;
2892;SDS011;1456;51.840;12.184;2024-02-16T02:34:03;6.63;;;5.93;;
2892;SDS011;1456;51.840;12.184;2024-02-16T02:36:30;10.63;;;7.00;;
2892;SDS011;1456;51.840;12.184;2024-02-16T02:38:57;9.07;;;7.60;;
2892;SDS011;1456;51.840;12.184;2024-02-16T02:41:23;8.67;;;7.77;;
2892;SDS011;1456;51.840;12.184;2024-02-16T02:43:49;6.73;;;5.97;;
2892;SDS011;1456;51.840;12.184;2024-02-16T02:46:18;7.93;;;6.90;;
2892;SDS011;1456;51.840;12.184;2024-02-16T02:48:44;10.27;;;8.70;;
2892;SDS011;1456;51.840;12.184;2024-02-16T02:51:10;7.77;;;6.77;;
2892;SDS011;1456;51.840;12.184;2024-02-16T02:53:36;8.33;;;5.60;;
2892;SDS011;1456;51.840;12.184;2024-02-16T02:56:02;8.37;;;6.37;;
2892;SDS011;1456;51.840;12.184;2024-02-16T02:58:28;8.23;;;7.47;;
2892;SDS011;1456;51.840;12.184;2024-02-16T03:00:54;7.43;;;6.73;;
2892;SDS011;1456;51.840;12.184;2024-02-16T03:03:20;9.17;;;5.93;;
2892;SDS011;1456;51.840;12.184;2024-02-16T03:05:46;7.50;;;6.80;;
2892;SDS011;1456;51.840;12.184;2024-02-16T03:08:12;6.97;;;6.30;;
2892;SDS011;1456;51.840;12.184;2024-02-16T03:10:38;8.33;;;6.30;;
2892;SDS011;1456;51.840;12.184;2024-02-16T03:13:04;8.07;;;5.13;;
2892;SDS011;1456;51.840;12.184;2024-02-16T03:15:32;10.73;;;7.10;;
2892;SDS011;1456;51.840;12.184;2024-02-16T03:17:58;7.50;;;6.80;;
2892;SDS011;1456;51.840;12.184;2024-02-16T03:20:24;9.43;;;6.30;;
2892;SDS011;1456;51.840;12.184;2024-02-16T03:22:50;5.30;;;4.50;;
2892;SDS011;1456;51.840;12.184;2024-02-16T03:25:15;6.70;;;6.20;;
2892;SDS011;1456;51.840;12.184;2024-02-16T03:27:42;6.50;;;5.90;;
2892;SDS011;1456;51.840;12.184;2024-02-16T03:30:08;7.07;;;6.47;;
2892;SDS011;1456;51.840;12.184;2024-02-16T03:32:35;7.20;;;5.40;;
2892;SDS011;1456;51.840;12.184;2024-02-16T03:35:01;6.73;;;5.40;;
2892;SDS011;1456;51.840;12.184;2024-02-16T03:37:27;6.73;;;5.60;;
2892;SDS011;1456;51.840;12.184;2024-02-16T03:39:53;6.23;;;5.73;;
2892;SDS011;1456;51.840;12.184;2024-02-16T03:42:21;11.93;;;7.13;;
2892;SDS011;1456;51.840;12.184;2024-02-16T03:44:47;7.50;;;5.13;;
2892;SDS011;1456;51.840;12.184;2024-02-16T03:47:12;6.87;;;6.23;;
2892;SDS011;1456;51.840;12.184;2024-02-16T03:49:39;6.30;;;5.70;;
2892;SDS011;1456;51.840;12.184;2024-02-16T03:52:04;7.47;;;5.70;;
2892;SDS011;1456;51.840;12.184;2024-02-16T03:54:30;6.73;;;4.87;;
2892;SDS011;1456;51.840;12.184;2024-02-16T03:56:56;5.73;;;5.23;;
2892;SDS011;1456;51.840;12.184;2024-02-16T03:59:23;5.90;;;5.50;;
2892;SDS011;1456;51.840;12.184;2024-02-16T04:01:48;7.43;;;6.83;;
2892;SDS011;1456;51.840;12.184;2024-02-16T04:04:14;5.70;;;5.10;;
2892;SDS011;1456;51.840;12.184;2024-02-16T04:06:40;5.50;;;5.00;;
2892;SDS011;1456;51.840;12.184;2024-02-16T04:09:06;6.93;;;6.13;;
2892;SDS011;1456;51.840;12.184;2024-02-16T04:11:32;7.03;;;6.37;;
2892;SDS011;1456;51.840;12.184;2024-02-16T04:13:58;5.10;;;4.30;;
2892;SDS011;1456;51.840;12.184;2024-02-16T04:16:23;7.40;;;5.93;;
2892;SDS011;1456;51.840;12.184;2024-02-16T04:18:50;6.70;;;6.10;;
2892;SDS011;1456;51.840;12.184;2024-02-16T04:21:16;7.43;;;6.73;;
2892;SDS011;1456;51.840;12.184;2024-02-16T04:23:42;4.90;;;4.50;;
2892;SDS011;1456;51.840;12.184;2024-02-16T04:26:07;5.80;;;5.37;;
2892;SDS011;1456;51.840;12.184;2024-02-16T04:28:33;6.30;;;5.70;;
2892;SDS011;1456;51.840;12.184;2024-02-16T04:31:02;6.70;;;5.30;;
2892;SDS011;1456;51.840;12.184;2024-02-16T04:33:27;7.37;;;4.50;;
2892;SDS011;1456;51.840;12.184;2024-02-16T04:35:53;5.50;;;5.10;;
2892;SDS011;1456;51.840;12.184;2024-02-16T04:38:19;10.43;;;8.37;;
2892;SDS011;1456;51.840;12.184;2024-02-16T04:40:45;22.93;;;12.67;;
2892;SDS011;1456;51.840;12.184;2024-02-16T04:43:10;22.70;;;13.40;;
2892;SDS011;1456;51.840;12.184;2024-02-16T04:45:36;14.20;;;8.83;;
2892;SDS011;1456;51.840;12.184;2024-02-16T04:48:03;9.80;;;8.90;;
2892;SDS011;1456;51.840;12.184;2024-02-16T04:50:30;11.57;;;8.47;;
2892;SDS011;1456;51.840;12.184;2024-02-16T04:52:57;11.33;;;8.47;;
2892;SDS011;1456;51.840;12.184;2024-02-16T04:55:22;7.57;;;6.97;;
2892;SDS011;1456;51.840;12.184;2024-02-16T04:57:48;7.97;;;7.40;;
2892;SDS011;1456;51.840;12.184;2024-02-16T05:00:14;7.80;;;7.10;;
2892;SDS011;1456;51.840;12.184;2024-02-16T05:02:42;7.60;;;6.90;;
2892;SDS011;1456;51.840;12.184;2024-02-16T05:05:08;12.53;;;8.80;;
2892;SDS011;1456;51.840;12.184;2024-02-16T05:07:33;9.77;;;7.77;;
2892;SDS011;1456;51.840;12.184;2024-02-16T05:10:01;9.10;;;5.50;;
2892;SDS011;1456;51.840;12.184;2024-02-16T05:12:27;10.97;;;8.63;;
2892;SDS011;1456;51.840;12.184;2024-02-16T05:14:53;7.43;;;6.73;;
2892;SDS011;1456;51.840;12.184;2024-02-16T05:17:19;7.17;;;6.47;;
2892;SDS011;1456;51.840;12.184;2024-02-16T05:19:45;5.00;;;4.70;;
2892;SDS011;1456;51.840;12.184;2024-02-16T05:22:11;8.77;;;6.90;;
2892;SDS011;1456;51.840;12.184;2024-02-16T05:24:37;7.23;;;6.40;;
2892;SDS011;1456;51.840;12.184;2024-02-16T05:27:02;5.77;;;5.33;;
2892;SDS011;1456;51.840;12.184;2024-02-16T05:29:28;5.17;;;4.50;;
2892;SDS011;1456;51.840;12.184;2024-02-16T05:31:54;5.87;;;5.20;;
2892;SDS011;1456;51.840;12.184;2024-02-16T05:34:19;5.37;;;5.00;;
2892;SDS011;1456;51.840;12.184;2024-02-16T05:36:45;5.20;;;3.93;;
2892;SDS011;1456;51.840;12.184;2024-02-16T05:39:11;6.47;;;5.73;;
2892;SDS011;1456;51.840;12.184;2024-02-16T05:41:51;6.43;;;5.47;;
2892;SDS011;1456;51.840;12.184;2024-02-16T05:44:17;6.63;;;6.03;;
2892;SDS011;1456;51.840;12.184;2024-02-16T05:46:44;5.80;;;4.10;;
2892;SDS011;1456;51.840;12.184;2024-02-16T05:49:09;6.43;;;5.83;;
2892;SDS011;1456;51.840;12.184;2024-02-16T05:51:35;6.03;;;5.63;;
2892;SDS011;1456;51.840;12.184;2024-02-16T05:54:02;5.03;;;4.23;;
2892;SDS011;1456;51.840;12.184;2024-02-16T05:56:28;3.90;;;3.47;;
2892;SDS011;1456;51.840;12.184;2024-02-16T05:58:54;5.60;;;4.70;;
2892;SDS011;1456;51.840;12.184;2024-02-16T06:01:19;5.33;;;4.83;;
2892;SDS011;1456;51.840;12.184;2024-02-16T06:03:45;3.77;;;3.47;;
2892;SDS011;1456;51.840;12.184;2024-02-16T06:06:11;3.40;;;3.13;;
2892;SDS011;1456;51.840;12.184;2024-02-16T06:08:36;4.50;;;4.20;;
2892;SDS011;1456;51.840;12.184;2024-02-16T06:11:02;3.93;;;3.63;;
2892;SDS011;1456;51.840;12.184;2024-02-16T06:13:29;3.00;;;2.80;;
2892;SDS011;1456;51.840;12.184;2024-02-16T06:15:55;2.73;;;2.50;;
2892;SDS011;1456;51.840;12.184;2024-02-16T06:18:21;5.07;;;4.57;;
2892;SDS011;1456;51.840;12.184;2024-02-16T06:20:47;4.97;;;4.60;;
2892;SDS011;1456;51.840;12.184;2024-02-16T06:23:13;3.03;;;2.83;;
2892;SDS011;1456;51.840;12.184;2024-02-16T06:25:42;3.40;;;3.10;;
2892;SDS011;1456;51.840;12.184;2024-02-16T06:28:08;9.37;;;4.33;;
2892;SDS011;1456;51.840;12.184;2024-02-16T06:30:33;4.03;;;3.83;;
2892;SDS011;1456;51.840;12.184;2024-02-16T06:32:59;3.10;;;2.90;;
2892;SDS011;1456;51.840;12.184;2024-02-16T06:35:25;2.43;;;2.23;;
2892;SDS011;1456;51.840;12.184;2024-02-16T06:37:51;4.40;;;4.30;;
2892;SDS011;1456;51.840;12.184;2024-02-16T06:40:17;4.63;;;3.80;;
2892;SDS011;1456;51.840;12.184;2024-02-16T06:42:42;2.30;;;2.20;;
2892;SDS011;1456;51.840;12.184;2024-02-16T06:45:08;2.70;;;2.00;;
2892;SDS011;1456;51.840;12.184;2024-02-16T06:47:34;2.63;;;2.43;;
2892;SDS011;1456;51.840;12.184;2024-02-16T06:49:59;3.00;;;2.70;;
2892;SDS011;1456;51.840;12.184;2024-02-16T06:52:25;4.60;;;2.30;;
2892;SDS011;1456;51.840;12.184;2024-02-16T06:54:51;3.47;;;1.70;;
2892;SDS011;1456;51.840;12.184;2024-02-16T06:57:18;2.77;;;2.57;;
2892;SDS011;1456;51.840;12.184;2024-02-16T06:59:44;2.50;;;2.40;;
2892;SDS011;1456;51.840;12.184;2024-02-16T07:02:10;5.00;;;2.20;;
2892;SDS011;1456;51.840;12.184;2024-02-16T07:04:36;4.13;;;3.23;;
2892;SDS011;1456;51.840;12.184;2024-02-16T07:07:04;4.27;;;3.00;;
2892;SDS011;1456;51.840;12.184;2024-02-16T07:09:31;4.73;;;2.67;;
2892;SDS011;1456;51.840;12.184;2024-02-16T07:11:57;1.83;;;1.57;;
2892;SDS011;1456;51.840;12.184;2024-02-16T07:14:23;2.50;;;2.40;;
2892;SDS011;1456;51.840;12.184;2024-02-16T07:16:49;4.40;;;2.60;;
2892;SDS011;1456;51.840;12.184;2024-02-16T07:19:15;4.03;;;3.33;;
2892;SDS011;1456;51.840;12.184;2024-02-16T07:21:41;2.20;;;2.00;;
2892;SDS011;1456;51.840;12.184;2024-02-16T07:24:06;3.93;;;2.90;;
2892;SDS011;1456;51.840;12.184;2024-02-16T07:26:33;3.90;;;3.60;;
2892;SDS011;1456;51.840;12.184;2024-02-16T07:28:59;3.10;;;2.90;;
2892;SDS011;1456;51.840;12.184;2024-02-16T07:31:24;2.30;;;2.10;;
2892;SDS011;1456;51.840;12.184;2024-02-16T07:33:50;3.60;;;3.40;;
2892;SDS011;1456;51.840;12.184;2024-02-16T07:36:16;2.80;;;2.60;;
2892;SDS011;1456;51.840;12.184;2024-02-16T07:38:43;3.00;;;2.80;;
2892;SDS011;1456;51.840;12.184;2024-02-16T07:41:12;2.53;;;1.70;;
2892;SDS011;1456;51.840;12.184;2024-02-16T07:43:38;2.90;;;2.70;;
2892;SDS011;1456;51.840;12.184;2024-02-16T07:46:04;2.90;;;2.60;;
2892;SDS011;1456;51.840;12.184;2024-02-16T07:48:29;3.40;;;3.10;;
2892;SDS011;1456;51.840;12.184;2024-02-16T07:50:55;2.80;;;1.80;;
2892;SDS011;1456;51.840;12.184;2024-02-16T07:53:23;3.00;;;2.80;;
2892;SDS011;1456;51.840;12.184;2024-02-16T07:55:49;4.93;;;2.70;;
2892;SDS011;1456;51.840;12.184;2024-02-16T07:58:14;2.80;;;1.63;;
2892;SDS011;1456;51.840;12.184;2024-02-16T08:00:40;1.50;;;1.30;;
2892;SDS011;1456;51.840;12.184;2024-02-16T08:03:06;2.67;;;2.57;;
2892;SDS011;1456;51.840;12.184;2024-02-16T08:05:31;2.43;;;2.33;;
2892;SDS011;1456;51.840;12.184;2024-02-16T08:07:57;2.57;;;2.43;;
2892;SDS011;1456;51.840;12.184;2024-02-16T08:10:23;1.53;;;1.43;;
2892;SDS011;1456;51.840;12.184;2024-02-16T08:12:50;3.03;;;2.93;;
2892;SDS011;1456;51.840;12.184;2024-02-16T08:15:15;3.33;;;3.03;;
2892;SDS011;1456;51.840;12.184;2024-02-16T08:17:47;1.90;;;1.80;;
2892;SDS011;1456;51.840;12.184;2024-02-16T08:20:14;1.80;;;1.67;;
2892;SDS011;1456;51.840;12.184;2024-02-16T08:22:40;2.60;;;2.50;;
2892;SDS011;1456;51.840;12.184;2024-02-16T08:25:06;3.60;;;3.40;;
2892;SDS011;1456;51.840;12.184;2024-02-16T08:27:32;2.83;;;2.73;;
2892;SDS011;1456;51.840;12.184;2024-02-16T08:29:57;2.70;;;1.77;;
2892;SDS011;1456;51.840;12.184;2024-02-16T08:32:23;4.73;;;2.80;;
2892;SDS011;1456;51.840;12.184;2024-02-16T08:34:49;3.67;;;3.47;;
2892;SDS011;1456;51.840;12.184;2024-02-16T08:37:15;2.20;;;2.10;;
2892;SDS011;1456;51.840;12.184;2024-02-16T08:39:41;1.77;;;1.60;;
2892;SDS011;1456;51.840;12.184;2024-02-16T08:42:07;3.50;;;3.30;;
2892;SDS011;1456;51.840;12.184;2024-02-16T08:44:39;3.37;;;3.27;;
2892;SDS011;1456;51.840;12.184;2024-02-16T08:47:05;2.33;;;1.70;;
2892;SDS011;1456;51.840;12.184;2024-02-16T08:49:32;4.13;;;4.03;;
2892;SDS011;1456;51.840;12.184;2024-02-16T08:51:58;4.73;;;4.40;;
2892;SDS011;1456;51.840;12.184;2024-02-16T08:54:24;2.07;;;1.37;;
2892;SDS011;1456;51.840;12.184;2024-02-16T08:56:50;1.50;;;1.40;;
2892;SDS011;1456;51.840;12.184;2024-02-16T08:59:16;5.57;;;4.40;;
2892;SDS011;1456;51.840;12.184;2024-02-16T09:01:42;4.10;;;4.00;;
2892;SDS011;1456;51.840;12.184;2024-02-16T09:04:08;4.10;;;1.13;;
2892;SDS011;1456;51.840;12.184;2024-02-16T09:06:34;4.03;;;3.80;;
2892;SDS011;1456;51.840;12.184;2024-02-16T09:08:59;3.77;;;3.67;;
2892;SDS011;1456;51.840;12.184;2024-02-16T09:11:25;1.30;;;1.30;;
2892;SDS011;1456;51.840;12.184;2024-02-16T09:13:51;1.50;;;1.40;;
2892;SDS011;1456;51.840;12.184;2024-02-16T09:16:17;4.27;;;4.13;;
2892;SDS011;1456;51.840;12.184;2024-02-16T09:18:42;5.00;;;4.50;;
2892;SDS011;1456;51.840;12.184;2024-02-16T09:21:08;4.40;;;1.80;;
2892;SDS011;1456;51.840;12.184;2024-02-16T09:23:34;3.83;;;3.73;;
2892;SDS011;1456;51.840;12.184;2024-02-16T09:26:01;4.20;;;4.10;;
2892;SDS011;1456;51.840;12.184;2024-02-16T09:28:30;3.50;;;3.40;;
2892;SDS011;1456;51.840;12.184;2024-02-16T09:30:56;1.63;;;1.53;;
2892;SDS011;1456;51.840;12.184;2024-02-16T09:33:22;4.40;;;4.20;;
2892;SDS011;1456;51.840;12.184;2024-02-16T09:35:49;4.77;;;4.57;;
2892;SDS011;1456;51.840;12.184;2024-02-16T09:38:15;2.30;;;2.10;;
2892;SDS011;1456;51.840;12.184;2024-02-16T09:40:40;1.80;;;1.70;;
2892;SDS011;1456;51.840;12.184;2024-02-16T09:43:06;1.90;;;1.80;;
2892;SDS011;1456;51.840;12.184;2024-02-16T09:45:32;4.20;;;1.67;;
2892;SDS011;1456;51.840;12.184;2024-02-16T09:47:58;2.93;;;1.60;;
2892;SDS011;1456;51.840;12.184;2024-02-16T09:50:25;2.50;;;1.70;;
2892;SDS011;1456;51.840;12.184;2024-02-16T09:52:52;1.53;;;1.43;;
2892;SDS011;1456;51.840;12.184;2024-02-16T09:55:19;2.40;;;2.10;;
2892;SDS011;1456;51.840;12.184;2024-02-16T09:57:45;1.97;;;1.87;;
2892;SDS011;1456;51.840;12.184;2024-02-16T10:00:12;1.60;;;1.50;;
2892;SDS011;1456;51.840;12.184;2024-02-16T10:02:45;2.20;;;2.00;;
2892;SDS011;1456;51.840;12.184;2024-02-16T10:07:41;2.10;;;2.00;;
2892;SDS011;1456;51.840;12.184;2024-02-16T10:10:19;2.03;;;1.83;;
2892;SDS011;1456;51.840;12.184;2024-02-16T10:12:48;2.00;;;1.90;;
2892;SDS011;1456;51.840;12.184;2024-02-16T10:15:21;2.00;;;1.90;;
2892;SDS011;1456;51.840;12.184;2024-02-16T10:17:57;1.33;;;1.33;;
2892;SDS011;1456;51.840;12.184;2024-02-16T10:20:32;2.23;;;1.90;;
2892;SDS011;1456;51.840;12.184;2024-02-16T10:23:09;2.20;;;1.73;;
2892;SDS011;1456;51.840;12.184;2024-02-16T10:25:36;1.87;;;1.73;;
2892;SDS011;1456;51.840;12.184;2024-02-16T10:28:06;1.80;;;1.73;;
2892;SDS011;1456;51.840;12.184;2024-02-16T10:30:40;2.20;;;2.10;;
2892;SDS011;1456;51.840;12.184;2024-02-16T10:33:07;2.13;;;1.97;;
2892;SDS011;1456;51.840;12.184;2024-02-16T10:35:34;2.57;;;2.37;;
2892;SDS011;1456;51.840;12.184;2024-02-16T10:38:06;2.10;;;2.00;;
2892;SDS011;1456;51.840;12.184;2024-02-16T10:40:41;2.70;;;2.33;;
2892;SDS011;1456;51.840;12.184;2024-02-16T10:43:08;3.13;;;2.93;;
2892;SDS011;1456;51.840;12.184;2024-02-16T10:45:35;2.00;;;1.90;;
2892;SDS011;1456;51.840;12.184;2024-02-16T10:48:02;2.20;;;2.10;;
2892;SDS011;1456;51.840;12.184;2024-02-16T10:50:29;2.33;;;2.23;;
2892;SDS011;1456;51.840;12.184;2024-02-16T10:52:57;2.23;;;2.10;;
2892;SDS011;1456;51.840;12.184;2024-02-16T10:55:37;2.13;;;1.90;;
2892;SDS011;1456;51.840;12.184;2024-02-16T10:58:03;1.60;;;1.47;;
2892;SDS011;1456;51.840;12.184;2024-02-16T11:00:31;2.30;;;2.20;;
2892;SDS011;1456;51.840;12.184;2024-02-16T11:02:59;2.97;;;2.77;;
2892;SDS011;1456;51.840;12.184;2024-02-16T11:05:46;2.50;;;2.30;;
2892;SDS011;1456;51.840;12.184;2024-02-16T11:08:12;2.57;;;2.37;;
2892;SDS011;1456;51.840;12.184;2024-02-16T11:10:39;2.80;;;2.60;;
2892;SDS011;1456;51.840;12.184;2024-02-16T11:13:05;2.23;;;2.03;;
2892;SDS011;1456;51.840;12.184;2024-02-16T11:15:31;2.47;;;2.37;;
2892;SDS011;1456;51.840;12.184;2024-02-16T11:17:58;4.03;;;2.17;;
2892;SDS011;1456;51.840;12.184;2024-02-16T11:20:35;3.10;;;2.90;;
2892;SDS011;1456;51.840;12.184;2024-02-16T11:23:04;2.73;;;2.57;;
2892;SDS011;1456;51.840;12.184;2024-02-16T11:25:32;1.80;;;1.70;;
2892;SDS011;1456;51.840;12.184;2024-02-16T11:27:58;2.20;;;2.10;;
2892;SDS011;1456;51.840;12.184;2024-02-16T11:30:25;2.20;;;2.00;;
2892;SDS011;1456;51.840;12.184;2024-02-16T11:32:51;2.17;;;2.00;;
2892;SDS011;1456;51.840;12.184;2024-02-16T11:35:17;2.90;;;2.30;;
2892;SDS011;1456;51.840;12.184;2024-02-16T11:37:43;2.03;;;1.93;;
2892;SDS011;1456;51.840;12.184;2024-02-16T11:40:11;2.00;;;1.90;;
2892;SDS011;1456;51.840;12.184;2024-02-16T11:42:38;2.10;;;2.00;;
2892;SDS011;1456;51.840;12.184;2024-02-16T11:45:03;6.80;;;2.53;;
2892;SDS011;1456;51.840;12.184;2024-02-16T11:47:31;2.60;;;2.50;;
2892;SDS011;1456;51.840;12.184;2024-02-16T11:50:06;3.77;;;3.47;;
2892;SDS011;1456;51.840;12.184;2024-02-16T11:52:39;3.50;;;3.30;;
2892;SDS011;1456;51.840;12.184;2024-02-16T11:55:07;2.80;;;2.70;;
2892;SDS011;1456;51.840;12.184;2024-02-16T11:57:34;2.70;;;2.60;;
2892;SDS011;1456;51.840;12.184;2024-02-16T12:00:01;3.03;;;2.83;;
2892;SDS011;1456;51.840;12.184;2024-02-16T12:02:36;2.70;;;2.50;;
2892;SDS011;1456;51.840;12.184;2024-02-16T12:05:02;2.40;;;2.20;;
2892;SDS011;1456;51.840;12.184;2024-02-16T12:07:28;2.67;;;2.57;;
2892;SDS011;1456;51.840;12.184;2024-02-16T12:10:01;3.97;;;2.87;;
2892;SDS011;1456;51.840;12.184;2024-02-16T12:12:30;3.00;;;2.80;;
2892;SDS011;1456;51.840;12.184;2024-02-16T12:14:56;2.83;;;2.63;;
2892;SDS011;1456;51.840;12.184;2024-02-16T12:17:23;3.00;;;2.80;;
2892;SDS011;1456;51.840;12.184;2024-02-16T12:19:49;2.60;;;2.40;;
2892;SDS011;1456;51.840;12.184;2024-02-16T12:22:20;2.87;;;2.70;;
2892;SDS011;1456;51.840;12.184;2024-02-16T12:24:46;3.20;;;3.07;;
2892;SDS011;1456;51.840;12.184;2024-02-16T12:27:12;2.83;;;2.73;;
2892;SDS011;1456;51.840;12.184;2024-02-16T12:29:39;3.13;;;2.93;;
2892;SDS011;1456;51.840;12.184;2024-02-16T12:32:05;2.73;;;2.63;;
2892;SDS011;1456;51.840;12.184;2024-02-16T12:34:31;2.87;;;2.77;;
2892;SDS011;1456;51.840;12.184;2024-02-16T12:36:58;2.73;;;2.43;;
2892;SDS011;1456;51.840;12.184;2024-02-16T12:39:24;2.30;;;2.20;;
2892;SDS011;1456;51.840;12.184;2024-02-16T12:41:49;4.27;;;2.77;;
2892;SDS011;1456;51.840;12.184;2024-02-16T12:44:15;2.40;;;2.30;;
2892;SDS011;1456;51.840;12.184;2024-02-16T12:46:41;3.13;;;2.70;;
2892;SDS011;1456;51.840;12.184;2024-02-16T12:49:08;2.77;;;2.67;;
2892;SDS011;1456;51.840;12.184;2024-02-16T12:51:34;2.47;;;2.37;;
2892;SDS011;1456;51.840;12.184;2024-02-16T12:54:00;2.53;;;2.43;;
2892;SDS011;1456;51.840;12.184;2024-02-16T12:56:28;3.03;;;2.83;;
2892;SDS011;1456;51.840;12.184;2024-02-16T12:58:54;2.63;;;2.53;;
2892;SDS011;1456;51.840;12.184;2024-02-16T13:01:20;2.47;;;2.37;;
2892;SDS011;1456;51.840;12.184;2024-02-16T13:03:46;3.30;;;3.03;;
2892;SDS011;1456;51.840;12.184;2024-02-16T13:06:12;3.67;;;3.47;;
2892;SDS011;1456;51.840;12.184;2024-02-16T13:08:38;3.60;;;3.40;;
2892;SDS011;1456;51.840;12.184;2024-02-16T13:11:06;3.50;;;3.30;;
2892;SDS011;1456;51.840;12.184;2024-02-16T13:13:35;3.40;;;3.20;;
2892;SDS011;1456;51.840;12.184;2024-02-16T13:16:00;3.00;;;2.83;;
2892;SDS011;1456;51.840;12.184;2024-02-16T13:18:26;2.33;;;2.23;;
2892;SDS011;1456;51.840;12.184;2024-02-16T13:20:51;4.60;;;3.20;;
2892;SDS011;1456;51.840;12.184;2024-02-16T13:23:17;4.00;;;3.03;;
2892;SDS011;1456;51.840;12.184;2024-02-16T13:25:43;3.13;;;3.03;;
2892;SDS011;1456;51.840;12.184;2024-02-16T13:28:08;2.90;;;2.43;;
2892;SDS011;1456;51.840;12.184;2024-02-16T13:30:34;2.63;;;2.53;;
2892;SDS011;1456;51.840;12.184;2024-02-16T13:32:59;3.07;;;2.90;;
2892;SDS011;1456;51.840;12.184;2024-02-16T13:35:25;4.03;;;3.10;;
2892;SDS011;1456;51.840;12.184;2024-02-16T13:37:51;2.47;;;2.37;;
2892;SDS011;1456;51.840;12.184;2024-02-16T13:40:17;2.47;;;2.37;;
2892;SDS011;1456;51.840;12.184;2024-02-16T13:42:43;3.03;;;2.27;;
2892;SDS011;1456;51.840;12.184;2024-02-16T13:45:10;2.70;;;2.50;;
2892;SDS011;1456;51.840;12.184;2024-02-16T13:47:36;2.80;;;2.30;;
2892;SDS011;1456;51.840;12.184;2024-02-16T13:50:04;2.87;;;2.67;;
2892;SDS011;1456;51.840;12.184;2024-02-16T13:52:31;2.50;;;2.30;;
2892;SDS011;1456;51.840;12.184;2024-02-16T13:54:57;2.00;;;1.90;;
2892;SDS011;1456;51.840;12.184;2024-02-16T13:57:22;1.97;;;1.87;;
2892;SDS011;1456;51.840;12.184;2024-02-16T13:59:48;3.07;;;2.23;;
2892;SDS011;1456;51.840;12.184;2024-02-16T14:02:14;2.67;;;2.00;;
2892;SDS011;1456;51.840;12.184;2024-02-16T14:04:40;2.63;;;2.40;;
2892;SDS011;1456;51.840;12.184;2024-02-16T14:07:06;2.60;;;2.40;;
2892;SDS011;1456;51.840;12.184;2024-02-16T14:09:32;3.13;;;2.73;;
2892;SDS011;1456;51.840;12.184;2024-02-16T14:11:58;2.93;;;2.73;;
2892;SDS011;1456;51.840;12.184;2024-02-16T14:14:24;2.60;;;2.40;;
2892;SDS011;1456;51.840;12.184;2024-02-16T14:16:50;2.40;;;2.30;;
2892;SDS011;1456;51.840;12.184;2024-02-16T14:19:16;5.93;;;4.80;;
2892;SDS011;1456;51.840;12.184;2024-02-16T14:21:45;5.30;;;4.80;;
2892;SDS011;1456;51.840;12.184;2024-02-16T14:24:12;4.10;;;3.80;;
2892;SDS011;1456;51.840;12.184;2024-02-16T14:26:38;5.33;;;4.03;;
2892;SDS011;1456;51.840;12.184;2024-02-16T14:29:04;5.63;;;4.53;;
2892;SDS011;1456;51.840;12.184;2024-02-16T14:31:31;4.43;;;4.03;;
2892;SDS011;1456;51.840;12.184;2024-02-16T14:33:58;3.30;;;3.10;;
2892;SDS011;1456;51.840;12.184;2024-02-16T14:36:26;4.00;;;3.70;;
2892;SDS011;1456;51.840;12.184;2024-02-16T14:38:52;2.80;;;2.63;;
2892;SDS011;1456;51.840;12.184;2024-02-16T14:41:17;3.43;;;3.10;;
2892;SDS011;1456;51.840;12.184;2024-02-16T14:43:43;2.80;;;2.70;;
2892;SDS011;1456;51.840;12.184;2024-02-16T14:46:09;4.70;;;3.00;;
2892;SDS011;1456;51.840;12.184;2024-02-16T14:48:35;4.77;;;2.63;;
2892;SDS011;1456;51.840;12.184;2024-02-16T14:51:01;2.90;;;2.67;;
2892;SDS011;1456;51.840;12.184;2024-02-16T14:53:28;2.20;;;2.00;;
2892;SDS011;1456;51.840;12.184;2024-02-16T14:55:57;3.33;;;2.53;;
2892;SDS011;1456;51.840;12.184;2024-02-16T14:58:28;2.57;;;2.47;;